sensor_id;sensor_type;location;lat;lon;timestamp;P1;durP1;ratioP1;P2;durP2;ratioP2
23496;SDS011;11925;48.122;11.560;2022-08-19T00:01:53;4.70;;;3.38;;
23496;SDS011;11925;48.122;11.560;2022-08-19T00:04:25;5.38;;;3.50;;
23496;SDS011;11925;48.122;11.560;2022-08-19T00:06:56;4.38;;;3.53;;
23496;SDS011;11925;48.122;11.560;2022-08-19T00:09:27;4.93;;;3.75;;
23496;SDS011;11925;48.122;11.560;2022-08-19T00:11:56;4.60;;;3.90;;
23496;SDS011;11925;48.122;11.560;2022-08-19T00:14:26;4.75;;;3.95;;
23496;SDS011;11925;48.122;11.560;2022-08-19T00:16:58;5.65;;;4.25;;
23496;SDS011;11925;48.122;11.560;2022-08-19T00:19:26;4.50;;;3.85;;
23496;SDS011;11925;48.122;11.560;2022-08-19T00:21:55;5.28;;;4.03;;
23496;SDS011;11925;48.122;11.560;2022-08-19T00:24:23;4.80;;;3.90;;
23496;SDS011;11925;48.122;11.560;2022-08-19T00:26:53;5.47;;;4.35;;
23496;SDS011;11925;48.122;11.560;2022-08-19T00:29:42;5.90;;;4.80;;
23496;SDS011;11925;48.122;11.560;2022-08-19T00:32:18;5.60;;;4.55;;
23496;SDS011;11925;48.122;11.560;2022-08-19T00:34:46;7.28;;;4.78;;
23496;SDS011;11925;48.122;11.560;2022-08-19T00:37:15;7.50;;;4.70;;
23496;SDS011;11925;48.122;11.560;2022-08-19T00:39:44;6.80;;;5.35;;
23496;SDS011;11925;48.122;11.560;2022-08-19T00:42:16;92.22;;;60.13;;
23496;SDS011;11925;48.122;11.560;2022-08-19T00:44:46;86.53;;;57.70;;
23496;SDS011;11925;48.122;11.560;2022-08-19T00:47:15;84.13;;;55.53;;
23496;SDS011;11925;48.122;11.560;2022-08-19T00:49:45;114.22;;;78.38;;
23496;SDS011;11925;48.122;11.560;2022-08-19T00:52:18;147.82;;;101.35;;
23496;SDS011;11925;48.122;11.560;2022-08-19T00:54:50;177.32;;;118.65;;
23496;SDS011;11925;48.122;11.560;2022-08-19T00:57:23;105.78;;;68.95;;
23496;SDS011;11925;48.122;11.560;2022-08-19T00:59:55;66.32;;;43.67;;
23496;SDS011;11925;48.122;11.560;2022-08-19T01:02:28;47.75;;;31.40;;
23496;SDS011;11925;48.122;11.560;2022-08-19T01:04:58;31.08;;;21.15;;
23496;SDS011;11925;48.122;11.560;2022-08-19T01:07:28;113.72;;;74.68;;
23496;SDS011;11925;48.122;11.560;2022-08-19T01:10:04;101.18;;;68.00;;
23496;SDS011;11925;48.122;11.560;2022-08-19T01:12:36;100.38;;;68.88;;
23496;SDS011;11925;48.122;11.560;2022-08-19T01:15:06;200.85;;;121.57;;
23496;SDS011;11925;48.122;11.560;2022-08-19T01:20:07;61.85;;;40.67;;
23496;SDS011;11925;48.122;11.560;2022-08-19T01:22:40;41.33;;;26.75;;
23496;SDS011;11925;48.122;11.560;2022-08-19T01:25:12;31.45;;;21.10;;
23496;SDS011;11925;48.122;11.560;2022-08-19T01:27:44;24.02;;;16.15;;
23496;SDS011;11925;48.122;11.560;2022-08-19T01:30:15;22.23;;;14.90;;
23496;SDS011;11925;48.122;11.560;2022-08-19T01:32:46;16.33;;;12.02;;
23496;SDS011;11925;48.122;11.560;2022-08-19T01:35:14;15.73;;;10.95;;
23496;SDS011;11925;48.122;11.560;2022-08-19T01:37:47;13.93;;;9.90;;
23496;SDS011;11925;48.122;11.560;2022-08-19T01:40:18;14.10;;;9.50;;
23496;SDS011;11925;48.122;11.560;2022-08-19T01:42:49;12.02;;;8.98;;
23496;SDS011;11925;48.122;11.560;2022-08-19T01:45:20;11.68;;;8.27;;
23496;SDS011;11925;48.122;11.560;2022-08-19T01:47:50;9.73;;;7.68;;
23496;SDS011;11925;48.122;11.560;2022-08-19T01:50:28;11.00;;;7.28;;
23496;SDS011;11925;48.122;11.560;2022-08-19T01:52:59;9.07;;;7.45;;
23496;SDS011;11925;48.122;11.560;2022-08-19T01:55:34;10.32;;;7.43;;
23496;SDS011;11925;48.122;11.560;2022-08-19T01:58:07;8.77;;;6.97;;
23496;SDS011;11925;48.122;11.560;2022-08-19T02:00:38;8.40;;;6.65;;
23496;SDS011;11925;48.122;11.560;2022-08-19T02:03:06;8.63;;;6.88;;
23496;SDS011;11925;48.122;11.560;2022-08-19T02:05:35;9.13;;;6.60;;
23496;SDS011;11925;48.122;11.560;2022-08-19T02:08:05;9.15;;;6.78;;
23496;SDS011;11925;48.122;11.560;2022-08-19T02:10:37;9.80;;;7.03;;
23496;SDS011;11925;48.122;11.560;2022-08-19T02:13:07;8.32;;;6.18;;
23496;SDS011;11925;48.122;11.560;2022-08-19T02:15:36;7.93;;;6.28;;
23496;SDS011;11925;48.122;11.560;2022-08-19T02:18:04;8.27;;;6.20;;
23496;SDS011;11925;48.122;11.560;2022-08-19T02:20:34;8.63;;;6.07;;
23496;SDS011;11925;48.122;11.560;2022-08-19T02:23:04;8.23;;;6.50;;
23496;SDS011;11925;48.122;11.560;2022-08-19T02:25:41;8.73;;;6.38;;
23496;SDS011;11925;48.122;11.560;2022-08-19T02:28:11;8.20;;;6.35;;
23496;SDS011;11925;48.122;11.560;2022-08-19T02:30:44;7.68;;;5.90;;
23496;SDS011;11925;48.122;11.560;2022-08-19T02:33:13;7.90;;;5.95;;
23496;SDS011;11925;48.122;11.560;2022-08-19T02:35:42;11.52;;;6.38;;
23496;SDS011;11925;48.122;11.560;2022-08-19T02:38:12;7.47;;;6.03;;
23496;SDS011;11925;48.122;11.560;2022-08-19T02:40:53;7.32;;;5.50;;
23496;SDS011;11925;48.122;11.560;2022-08-19T02:43:23;7.40;;;5.72;;
23496;SDS011;11925;48.122;11.560;2022-08-19T02:45:52;6.57;;;5.47;;
23496;SDS011;11925;48.122;11.560;2022-08-19T02:48:22;7.20;;;5.50;;
23496;SDS011;11925;48.122;11.560;2022-08-19T02:50:52;6.60;;;5.00;;
23496;SDS011;11925;48.122;11.560;2022-08-19T02:53:24;7.80;;;5.43;;
23496;SDS011;11925;48.122;11.560;2022-08-19T02:55:54;7.55;;;5.78;;
23496;SDS011;11925;48.122;11.560;2022-08-19T02:58:23;6.63;;;5.43;;
23496;SDS011;11925;48.122;11.560;2022-08-19T03:00:54;6.05;;;5.00;;
23496;SDS011;11925;48.122;11.560;2022-08-19T03:03:23;8.32;;;5.55;;
23496;SDS011;11925;48.122;11.560;2022-08-19T03:06:02;6.65;;;5.13;;
23496;SDS011;11925;48.122;11.560;2022-08-19T03:08:36;7.50;;;5.28;;
23496;SDS011;11925;48.122;11.560;2022-08-19T03:11:06;6.37;;;5.10;;
23496;SDS011;11925;48.122;11.560;2022-08-19T03:13:39;8.30;;;5.53;;
23496;SDS011;11925;48.122;11.560;2022-08-19T03:16:09;6.57;;;5.40;;
23496;SDS011;11925;48.122;11.560;2022-08-19T03:18:38;5.53;;;4.60;;
23496;SDS011;11925;48.122;11.560;2022-08-19T03:21:06;6.68;;;4.85;;
23496;SDS011;11925;48.122;11.560;2022-08-19T03:23:39;7.40;;;5.35;;
23496;SDS011;11925;48.122;11.560;2022-08-19T03:26:07;7.30;;;5.55;;
23496;SDS011;11925;48.122;11.560;2022-08-19T03:28:42;6.00;;;5.32;;
23496;SDS011;11925;48.122;11.560;2022-08-19T03:31:18;6.95;;;5.35;;
23496;SDS011;11925;48.122;11.560;2022-08-19T03:34:09;8.43;;;5.60;;
23496;SDS011;11925;48.122;11.560;2022-08-19T03:36:39;6.75;;;5.40;;
23496;SDS011;11925;48.122;11.560;2022-08-19T03:39:09;7.55;;;5.22;;
23496;SDS011;11925;48.122;11.560;2022-08-19T03:41:39;6.18;;;5.15;;
23496;SDS011;11925;48.122;11.560;2022-08-19T03:44:11;6.70;;;5.00;;
23496;SDS011;11925;48.122;11.560;2022-08-19T03:46:44;6.75;;;5.00;;
23496;SDS011;11925;48.122;11.560;2022-08-19T03:49:13;6.85;;;5.00;;
23496;SDS011;11925;48.122;11.560;2022-08-19T03:51:44;7.10;;;5.63;;
23496;SDS011;11925;48.122;11.560;2022-08-19T03:54:16;8.38;;;5.53;;
23496;SDS011;11925;48.122;11.560;2022-08-19T03:56:47;7.50;;;5.53;;
23496;SDS011;11925;48.122;11.560;2022-08-19T03:59:18;6.80;;;5.43;;
23496;SDS011;11925;48.122;11.560;2022-08-19T04:01:52;7.95;;;5.38;;
23496;SDS011;11925;48.122;11.560;2022-08-19T04:04:21;7.50;;;5.28;;
23496;SDS011;11925;48.122;11.560;2022-08-19T04:06:54;8.60;;;4.97;;
23496;SDS011;11925;48.122;11.560;2022-08-19T04:09:25;7.05;;;5.35;;
23496;SDS011;11925;48.122;11.560;2022-08-19T04:11:56;5.93;;;4.72;;
23496;SDS011;11925;48.122;11.560;2022-08-19T04:14:26;6.75;;;5.28;;
23496;SDS011;11925;48.122;11.560;2022-08-19T04:16:56;7.28;;;5.63;;
23496;SDS011;11925;48.122;11.560;2022-08-19T04:19:25;7.50;;;5.45;;
23496;SDS011;11925;48.122;11.560;2022-08-19T04:21:56;8.45;;;5.47;;
23496;SDS011;11925;48.122;11.560;2022-08-19T04:24:26;7.80;;;5.88;;
23496;SDS011;11925;48.122;11.560;2022-08-19T04:26:55;9.02;;;5.80;;
23496;SDS011;11925;48.122;11.560;2022-08-19T04:29:24;8.00;;;5.78;;
23496;SDS011;11925;48.122;11.560;2022-08-19T04:31:53;9.75;;;6.40;;
23496;SDS011;11925;48.122;11.560;2022-08-19T04:34:24;8.00;;;5.90;;
23496;SDS011;11925;48.122;11.560;2022-08-19T04:39:24;10.57;;;6.80;;
23496;SDS011;11925;48.122;11.560;2022-08-19T04:42:09;9.75;;;6.68;;
23496;SDS011;11925;48.122;11.560;2022-08-19T04:44:56;9.23;;;6.50;;
23496;SDS011;11925;48.122;11.560;2022-08-19T04:47:25;9.43;;;6.93;;
23496;SDS011;11925;48.122;11.560;2022-08-19T04:50:14;9.82;;;7.50;;
23496;SDS011;11925;48.122;11.560;2022-08-19T04:52:44;10.18;;;7.75;;
23496;SDS011;11925;48.122;11.560;2022-08-19T04:55:14;10.60;;;7.30;;
23496;SDS011;11925;48.122;11.560;2022-08-19T04:57:43;9.73;;;6.72;;
23496;SDS011;11925;48.122;11.560;2022-08-19T05:00:11;9.35;;;7.22;;
23496;SDS011;11925;48.122;11.560;2022-08-19T05:02:41;8.82;;;6.72;;
23496;SDS011;11925;48.122;11.560;2022-08-19T05:05:09;9.65;;;6.88;;
23496;SDS011;11925;48.122;11.560;2022-08-19T05:07:37;9.32;;;6.50;;
23496;SDS011;11925;48.122;11.560;2022-08-19T05:10:07;10.18;;;6.78;;
23496;SDS011;11925;48.122;11.560;2022-08-19T05:12:38;8.60;;;6.55;;
23496;SDS011;11925;48.122;11.560;2022-08-19T05:15:07;11.77;;;7.37;;
23496;SDS011;11925;48.122;11.560;2022-08-19T05:17:36;8.15;;;6.65;;
23496;SDS011;11925;48.122;11.560;2022-08-19T05:20:24;8.60;;;6.75;;
23496;SDS011;11925;48.122;11.560;2022-08-19T05:23:10;10.52;;;6.70;;
23496;SDS011;11925;48.122;11.560;2022-08-19T05:25:48;8.30;;;5.97;;
23496;SDS011;11925;48.122;11.560;2022-08-19T05:28:19;10.55;;;7.38;;
23496;SDS011;11925;48.122;11.560;2022-08-19T05:30:48;9.43;;;6.60;;
23496;SDS011;11925;48.122;11.560;2022-08-19T05:33:17;8.45;;;6.25;;
23496;SDS011;11925;48.122;11.560;2022-08-19T05:35:45;10.38;;;6.60;;
23496;SDS011;11925;48.122;11.560;2022-08-19T05:38:15;8.40;;;6.43;;
23496;SDS011;11925;48.122;11.560;2022-08-19T05:40:44;9.68;;;6.78;;
23496;SDS011;11925;48.122;11.560;2022-08-19T05:43:13;8.85;;;6.47;;
23496;SDS011;11925;48.122;11.560;2022-08-19T05:45:44;9.60;;;6.25;;
23496;SDS011;11925;48.122;11.560;2022-08-19T05:48:13;8.52;;;6.78;;
23496;SDS011;11925;48.122;11.560;2022-08-19T05:50:44;10.27;;;6.82;;
23496;SDS011;11925;48.122;11.560;2022-08-19T05:55:44;9.95;;;7.20;;
23496;SDS011;11925;48.122;11.560;2022-08-19T05:58:13;9.75;;;7.57;;
23496;SDS011;11925;48.122;11.560;2022-08-19T06:00:42;9.98;;;7.32;;
23496;SDS011;11925;48.122;11.560;2022-08-19T06:03:12;9.80;;;7.25;;
23496;SDS011;11925;48.122;11.560;2022-08-19T06:05:40;10.25;;;8.07;;
23496;SDS011;11925;48.122;11.560;2022-08-19T06:08:18;13.57;;;8.63;;
23496;SDS011;11925;48.122;11.560;2022-08-19T06:11:12;11.57;;;8.27;;
23496;SDS011;11925;48.122;11.560;2022-08-19T06:13:43;11.73;;;8.68;;
23496;SDS011;11925;48.122;11.560;2022-08-19T06:16:14;11.82;;;8.93;;
23496;SDS011;11925;48.122;11.560;2022-08-19T06:18:49;12.80;;;9.70;;
23496;SDS011;11925;48.122;11.560;2022-08-19T06:21:19;14.02;;;10.15;;
23496;SDS011;11925;48.122;11.560;2022-08-19T06:23:47;15.38;;;10.52;;
23496;SDS011;11925;48.122;11.560;2022-08-19T06:26:17;14.70;;;10.90;;
23496;SDS011;11925;48.122;11.560;2022-08-19T06:28:47;14.98;;;10.65;;
23496;SDS011;11925;48.122;11.560;2022-08-19T06:31:19;18.13;;;11.93;;
23496;SDS011;11925;48.122;11.560;2022-08-19T06:33:48;16.35;;;11.10;;
23496;SDS011;11925;48.122;11.560;2022-08-19T06:36:18;15.32;;;10.77;;
23496;SDS011;11925;48.122;11.560;2022-08-19T06:38:51;15.50;;;11.15;;
23496;SDS011;11925;48.122;11.560;2022-08-19T06:41:19;16.08;;;11.25;;
23496;SDS011;11925;48.122;11.560;2022-08-19T06:43:48;16.98;;;11.10;;
23496;SDS011;11925;48.122;11.560;2022-08-19T06:46:20;16.15;;;11.13;;
23496;SDS011;11925;48.122;11.560;2022-08-19T06:48:50;16.13;;;12.23;;
23496;SDS011;11925;48.122;11.560;2022-08-19T06:51:20;16.50;;;11.65;;
23496;SDS011;11925;48.122;11.560;2022-08-19T06:53:51;18.17;;;12.50;;
23496;SDS011;11925;48.122;11.560;2022-08-19T06:56:22;19.85;;;12.82;;
23496;SDS011;11925;48.122;11.560;2022-08-19T06:58:57;17.30;;;11.88;;
23496;SDS011;11925;48.122;11.560;2022-08-19T07:01:27;17.23;;;12.02;;
23496;SDS011;11925;48.122;11.560;2022-08-19T07:03:55;17.45;;;11.55;;
23496;SDS011;11925;48.122;11.560;2022-08-19T07:06:24;16.02;;;12.25;;
23496;SDS011;11925;48.122;11.560;2022-08-19T07:09:10;16.00;;;11.13;;
23496;SDS011;11925;48.122;11.560;2022-08-19T07:11:44;18.10;;;12.02;;
23496;SDS011;11925;48.122;11.560;2022-08-19T07:14:13;16.80;;;11.77;;
23496;SDS011;11925;48.122;11.560;2022-08-19T07:16:47;15.98;;;12.10;;
23496;SDS011;11925;48.122;11.560;2022-08-19T07:19:18;16.90;;;11.73;;
23496;SDS011;11925;48.122;11.560;2022-08-19T07:21:47;18.13;;;12.63;;
23496;SDS011;11925;48.122;11.560;2022-08-19T07:24:20;17.63;;;12.77;;
23496;SDS011;11925;48.122;11.560;2022-08-19T07:26:50;18.90;;;13.23;;
23496;SDS011;11925;48.122;11.560;2022-08-19T07:29:21;18.75;;;13.43;;
23496;SDS011;11925;48.122;11.560;2022-08-19T07:31:55;18.23;;;12.90;;
23496;SDS011;11925;48.122;11.560;2022-08-19T07:36:54;18.52;;;13.13;;
23496;SDS011;11925;48.122;11.560;2022-08-19T07:39:24;21.00;;;15.27;;
23496;SDS011;11925;48.122;11.560;2022-08-19T07:41:56;22.35;;;14.98;;
23496;SDS011;11925;48.122;11.560;2022-08-19T07:44:26;23.60;;;15.25;;
23496;SDS011;11925;48.122;11.560;2022-08-19T07:46:57;22.52;;;16.38;;
23496;SDS011;11925;48.122;11.560;2022-08-19T07:49:26;23.23;;;16.42;;
23496;SDS011;11925;48.122;11.560;2022-08-19T07:51:56;23.88;;;17.90;;
23496;SDS011;11925;48.122;11.560;2022-08-19T07:54:28;22.80;;;15.70;;
23496;SDS011;11925;48.122;11.560;2022-08-19T07:56:58;23.80;;;16.75;;
23496;SDS011;11925;48.122;11.560;2022-08-19T07:59:26;25.20;;;17.60;;
23496;SDS011;11925;48.122;11.560;2022-08-19T08:01:57;23.75;;;16.85;;
23496;SDS011;11925;48.122;11.560;2022-08-19T08:04:27;24.95;;;16.52;;
23496;SDS011;11925;48.122;11.560;2022-08-19T08:07:13;22.17;;;16.85;;
23496;SDS011;11925;48.122;11.560;2022-08-19T08:10:00;25.38;;;17.08;;
23496;SDS011;11925;48.122;11.560;2022-08-19T08:12:30;20.67;;;16.10;;
23496;SDS011;11925;48.122;11.560;2022-08-19T08:17:35;25.85;;;17.08;;
23496;SDS011;11925;48.122;11.560;2022-08-19T08:20:17;25.45;;;18.55;;
23496;SDS011;11925;48.122;11.560;2022-08-19T08:22:46;26.52;;;17.45;;
23496;SDS011;11925;48.122;11.560;2022-08-19T08:25:32;27.40;;;18.73;;
23496;SDS011;11925;48.122;11.560;2022-08-19T08:28:02;27.77;;;18.70;;
23496;SDS011;11925;48.122;11.560;2022-08-19T08:30:31;27.30;;;19.52;;
23496;SDS011;11925;48.122;11.560;2022-08-19T08:33:04;27.77;;;19.02;;
23496;SDS011;11925;48.122;11.560;2022-08-19T08:35:32;28.67;;;18.50;;
23496;SDS011;11925;48.122;11.560;2022-08-19T08:38:01;26.08;;;18.83;;
23496;SDS011;11925;48.122;11.560;2022-08-19T08:40:32;30.15;;;19.95;;
23496;SDS011;11925;48.122;11.560;2022-08-19T08:45:59;27.70;;;19.13;;
23496;SDS011;11925;48.122;11.560;2022-08-19T08:48:35;28.95;;;20.23;;
23496;SDS011;11925;48.122;11.560;2022-08-19T08:51:08;31.10;;;20.85;;
23496;SDS011;11925;48.122;11.560;2022-08-19T08:53:45;28.83;;;20.92;;
23496;SDS011;11925;48.122;11.560;2022-08-19T08:56:21;29.27;;;20.17;;
23496;SDS011;11925;48.122;11.560;2022-08-19T08:58:51;28.98;;;20.05;;
23496;SDS011;11925;48.122;11.560;2022-08-19T09:01:26;30.02;;;20.98;;
23496;SDS011;11925;48.122;11.560;2022-08-19T09:03:57;31.05;;;20.02;;
23496;SDS011;11925;48.122;11.560;2022-08-19T09:06:29;27.42;;;18.83;;
23496;SDS011;11925;48.122;11.560;2022-08-19T09:09:10;28.15;;;20.35;;
23496;SDS011;11925;48.122;11.560;2022-08-19T09:11:47;26.90;;;19.92;;
23496;SDS011;11925;48.122;11.560;2022-08-19T09:14:31;28.73;;;19.02;;
23496;SDS011;11925;48.122;11.560;2022-08-19T09:17:17;26.80;;;19.08;;
23496;SDS011;11925;48.122;11.560;2022-08-19T09:19:59;28.42;;;18.95;;
23496;SDS011;11925;48.122;11.560;2022-08-19T09:22:34;25.60;;;18.67;;
23496;SDS011;11925;48.122;11.560;2022-08-19T09:25:04;24.60;;;17.45;;
23496;SDS011;11925;48.122;11.560;2022-08-19T09:27:35;28.00;;;18.67;;
23496;SDS011;11925;48.122;11.560;2022-08-19T09:30:11;28.50;;;19.58;;
23496;SDS011;11925;48.122;11.560;2022-08-19T09:32:41;26.25;;;18.65;;
23496;SDS011;11925;48.122;11.560;2022-08-19T09:35:13;23.63;;;17.58;;
23496;SDS011;11925;48.122;11.560;2022-08-19T09:37:42;25.73;;;17.48;;
23496;SDS011;11925;48.122;11.560;2022-08-19T09:40:11;24.55;;;18.60;;
23496;SDS011;11925;48.122;11.560;2022-08-19T09:42:41;25.42;;;17.52;;
23496;SDS011;11925;48.122;11.560;2022-08-19T09:45:19;44.55;;;27.60;;
23496;SDS011;11925;48.122;11.560;2022-08-19T09:47:49;31.40;;;21.97;;
23496;SDS011;11925;48.122;11.560;2022-08-19T09:50:22;32.30;;;20.10;;
23496;SDS011;11925;48.122;11.560;2022-08-19T09:52:51;29.40;;;18.63;;
23496;SDS011;11925;48.122;11.560;2022-08-19T09:55:24;30.67;;;18.98;;
23496;SDS011;11925;48.122;11.560;2022-08-19T09:57:58;29.60;;;18.77;;
23496;SDS011;11925;48.122;11.560;2022-08-19T10:00:27;26.88;;;18.05;;
23496;SDS011;11925;48.122;11.560;2022-08-19T10:02:57;25.35;;;17.65;;
23496;SDS011;11925;48.122;11.560;2022-08-19T10:05:28;29.10;;;18.55;;
23496;SDS011;11925;48.122;11.560;2022-08-19T10:08:14;28.85;;;18.27;;
23496;SDS011;11925;48.122;11.560;2022-08-19T10:10:46;28.92;;;18.55;;
23496;SDS011;11925;48.122;11.560;2022-08-19T10:13:16;29.45;;;18.10;;
23496;SDS011;11925;48.122;11.560;2022-08-19T10:15:49;25.73;;;17.05;;
23496;SDS011;11925;48.122;11.560;2022-08-19T10:18:19;28.42;;;18.27;;
23496;SDS011;11925;48.122;11.560;2022-08-19T10:20:50;26.70;;;17.02;;
23496;SDS011;11925;48.122;11.560;2022-08-19T10:23:21;26.80;;;17.70;;
23496;SDS011;11925;48.122;11.560;2022-08-19T10:25:50;23.48;;;15.82;;
23496;SDS011;11925;48.122;11.560;2022-08-19T10:28:20;27.08;;;18.25;;
23496;SDS011;11925;48.122;11.560;2022-08-19T10:30:49;25.30;;;17.40;;
23496;SDS011;11925;48.122;11.560;2022-08-19T10:33:18;23.63;;;16.63;;
23496;SDS011;11925;48.122;11.560;2022-08-19T10:36:10;24.73;;;17.50;;
23496;SDS011;11925;48.122;11.560;2022-08-19T10:38:44;24.75;;;16.52;;
23496;SDS011;11925;48.122;11.560;2022-08-19T10:41:20;23.67;;;16.02;;
23496;SDS011;11925;48.122;11.560;2022-08-19T10:43:51;24.48;;;16.83;;
23496;SDS011;11925;48.122;11.560;2022-08-19T10:46:21;23.13;;;16.45;;
23496;SDS011;11925;48.122;11.560;2022-08-19T10:48:51;25.48;;;17.08;;
23496;SDS011;11925;48.122;11.560;2022-08-19T10:51:22;22.20;;;15.52;;
23496;SDS011;11925;48.122;11.560;2022-08-19T10:54:14;23.00;;;15.38;;
23496;SDS011;11925;48.122;11.560;2022-08-19T10:56:49;20.80;;;14.20;;
23496;SDS011;11925;48.122;11.560;2022-08-19T10:59:20;23.73;;;15.57;;
23496;SDS011;11925;48.122;11.560;2022-08-19T11:01:52;22.80;;;14.25;;
23496;SDS011;11925;48.122;11.560;2022-08-19T11:04:23;19.85;;;14.18;;
23496;SDS011;11925;48.122;11.560;2022-08-19T11:06:56;21.02;;;14.55;;
23496;SDS011;11925;48.122;11.560;2022-08-19T11:09:25;23.45;;;14.15;;
23496;SDS011;11925;48.122;11.560;2022-08-19T11:11:59;20.83;;;14.43;;
23496;SDS011;11925;48.122;11.560;2022-08-19T11:14:30;20.15;;;13.48;;
23496;SDS011;11925;48.122;11.560;2022-08-19T11:17:00;20.95;;;14.45;;
23496;SDS011;11925;48.122;11.560;2022-08-19T11:19:29;17.15;;;12.55;;
23496;SDS011;11925;48.122;11.560;2022-08-19T11:21:59;16.92;;;12.75;;
23496;SDS011;11925;48.122;11.560;2022-08-19T11:24:29;19.50;;;12.85;;
23496;SDS011;11925;48.122;11.560;2022-08-19T11:27:03;18.48;;;12.82;;
23496;SDS011;11925;48.122;11.560;2022-08-19T11:29:33;20.20;;;13.20;;
23496;SDS011;11925;48.122;11.560;2022-08-19T11:32:03;18.80;;;13.23;;
23496;SDS011;11925;48.122;11.560;2022-08-19T11:34:32;20.40;;;13.03;;
23496;SDS011;11925;48.122;11.560;2022-08-19T11:37:03;19.15;;;13.77;;
23496;SDS011;11925;48.122;11.560;2022-08-19T11:39:32;17.65;;;12.90;;
23496;SDS011;11925;48.122;11.560;2022-08-19T11:42:02;18.10;;;13.40;;
23496;SDS011;11925;48.122;11.560;2022-08-19T11:44:52;16.42;;;12.57;;
23496;SDS011;11925;48.122;11.560;2022-08-19T11:47:21;14.30;;;10.25;;
23496;SDS011;11925;48.122;11.560;2022-08-19T11:49:50;10.50;;;7.90;;
23496;SDS011;11925;48.122;11.560;2022-08-19T11:52:20;9.20;;;6.93;;
23496;SDS011;11925;48.122;11.560;2022-08-19T11:54:49;9.65;;;7.25;;
23496;SDS011;11925;48.122;11.560;2022-08-19T11:57:17;11.63;;;6.80;;
23496;SDS011;11925;48.122;11.560;2022-08-19T11:59:49;8.25;;;6.10;;
23496;SDS011;11925;48.122;11.560;2022-08-19T12:02:18;8.73;;;6.30;;
23496;SDS011;11925;48.122;11.560;2022-08-19T12:04:47;7.35;;;6.18;;
23496;SDS011;11925;48.122;11.560;2022-08-19T12:07:16;9.07;;;6.55;;
23496;SDS011;11925;48.122;11.560;2022-08-19T12:09:46;8.43;;;6.13;;
23496;SDS011;11925;48.122;11.560;2022-08-19T12:12:14;6.80;;;5.15;;
23496;SDS011;11925;48.122;11.560;2022-08-19T12:14:43;6.95;;;4.57;;
23496;SDS011;11925;48.122;11.560;2022-08-19T12:17:13;4.63;;;3.30;;
23496;SDS011;11925;48.122;11.560;2022-08-19T12:19:41;5.13;;;2.80;;
23496;SDS011;11925;48.122;11.560;2022-08-19T12:22:09;33.58;;;18.98;;
23496;SDS011;11925;48.122;11.560;2022-08-19T12:24:38;27.45;;;16.40;;
23496;SDS011;11925;48.122;11.560;2022-08-19T12:27:08;22.17;;;13.60;;
23496;SDS011;11925;48.122;11.560;2022-08-19T12:29:38;17.27;;;11.07;;
23496;SDS011;11925;48.122;11.560;2022-08-19T12:32:08;13.48;;;9.30;;
23496;SDS011;11925;48.122;11.560;2022-08-19T12:34:37;8.80;;;6.00;;
23496;SDS011;11925;48.122;11.560;2022-08-19T12:37:06;5.93;;;4.25;;
23496;SDS011;11925;48.122;11.560;2022-08-19T12:39:36;4.93;;;3.30;;
23496;SDS011;11925;48.122;11.560;2022-08-19T12:42:05;3.65;;;2.83;;
23496;SDS011;11925;48.122;11.560;2022-08-19T12:44:36;3.05;;;2.38;;
23496;SDS011;11925;48.122;11.560;2022-08-19T12:47:07;3.67;;;2.17;;
23496;SDS011;11925;48.122;11.560;2022-08-19T12:49:38;2.28;;;1.65;;
23496;SDS011;11925;48.122;11.560;2022-08-19T12:52:21;2.72;;;1.65;;
23496;SDS011;11925;48.122;11.560;2022-08-19T12:54:51;2.75;;;1.80;;
23496;SDS011;11925;48.122;11.560;2022-08-19T12:57:22;1.88;;;1.50;;
23496;SDS011;11925;48.122;11.560;2022-08-19T12:59:59;2.53;;;1.80;;
23496;SDS011;11925;48.122;11.560;2022-08-19T13:02:31;2.17;;;1.70;;
23496;SDS011;11925;48.122;11.560;2022-08-19T13:05:06;3.35;;;1.90;;
23496;SDS011;11925;48.122;11.560;2022-08-19T13:10:05;2.50;;;1.90;;
23496;SDS011;11925;48.122;11.560;2022-08-19T13:12:36;1.85;;;1.48;;
23496;SDS011;11925;48.122;11.560;2022-08-19T13:15:05;4.10;;;1.90;;
23496;SDS011;11925;48.122;11.560;2022-08-19T13:17:36;2.85;;;2.05;;
23496;SDS011;11925;48.122;11.560;2022-08-19T13:20:06;2.63;;;2.08;;
23496;SDS011;11925;48.122;11.560;2022-08-19T13:22:36;3.30;;;2.33;;
23496;SDS011;11925;48.122;11.560;2022-08-19T13:25:05;2.33;;;1.90;;
23496;SDS011;11925;48.122;11.560;2022-08-19T13:27:36;3.40;;;2.50;;
23496;SDS011;11925;48.122;11.560;2022-08-19T13:30:06;2.35;;;1.73;;
23496;SDS011;11925;48.122;11.560;2022-08-19T13:32:54;2.78;;;2.00;;
23496;SDS011;11925;48.122;11.560;2022-08-19T13:35:42;3.17;;;1.60;;
23496;SDS011;11925;48.122;11.560;2022-08-19T13:38:13;2.40;;;1.92;;
23496;SDS011;11925;48.122;11.560;2022-08-19T13:40:44;2.22;;;1.77;;
23496;SDS011;11925;48.122;11.560;2022-08-19T13:43:15;3.10;;;2.10;;
23496;SDS011;11925;48.122;11.560;2022-08-19T13:45:49;3.13;;;1.92;;
23496;SDS011;11925;48.122;11.560;2022-08-19T13:48:19;3.10;;;2.28;;
23496;SDS011;11925;48.122;11.560;2022-08-19T13:50:47;2.70;;;2.10;;
23496;SDS011;11925;48.122;11.560;2022-08-19T13:53:16;2.78;;;1.92;;
23496;SDS011;11925;48.122;11.560;2022-08-19T13:55:44;3.30;;;2.40;;
23496;SDS011;11925;48.122;11.560;2022-08-19T13:58:14;3.40;;;2.22;;
23496;SDS011;11925;48.122;11.560;2022-08-19T14:00:44;3.92;;;2.75;;
23496;SDS011;11925;48.122;11.560;2022-08-19T14:03:14;3.65;;;2.70;;
23496;SDS011;11925;48.122;11.560;2022-08-19T14:05:43;3.38;;;2.80;;
23496;SDS011;11925;48.122;11.560;2022-08-19T14:08:12;3.97;;;3.03;;
23496;SDS011;11925;48.122;11.560;2022-08-19T14:10:40;4.57;;;3.00;;
23496;SDS011;11925;48.122;11.560;2022-08-19T14:13:12;4.38;;;3.13;;
23496;SDS011;11925;48.122;11.560;2022-08-19T14:15:44;3.92;;;2.97;;
23496;SDS011;11925;48.122;11.560;2022-08-19T14:18:13;4.40;;;3.20;;
23496;SDS011;11925;48.122;11.560;2022-08-19T14:20:42;6.03;;;3.50;;
23496;SDS011;11925;48.122;11.560;2022-08-19T14:23:11;4.68;;;3.47;;
23496;SDS011;11925;48.122;11.560;2022-08-19T14:25:40;5.97;;;3.80;;
23496;SDS011;11925;48.122;11.560;2022-08-19T14:28:08;4.90;;;3.70;;
23496;SDS011;11925;48.122;11.560;2022-08-19T14:30:38;5.28;;;3.40;;
23496;SDS011;11925;48.122;11.560;2022-08-19T14:33:06;5.20;;;3.47;;
23496;SDS011;11925;48.122;11.560;2022-08-19T14:35:36;5.85;;;3.55;;
23496;SDS011;11925;48.122;11.560;2022-08-19T14:38:04;4.93;;;3.88;;
23496;SDS011;11925;48.122;11.560;2022-08-19T14:40:34;4.82;;;3.70;;
23496;SDS011;11925;48.122;11.560;2022-08-19T14:43:04;4.50;;;3.15;;
23496;SDS011;11925;48.122;11.560;2022-08-19T14:45:33;4.53;;;3.50;;
23496;SDS011;11925;48.122;11.560;2022-08-19T14:48:04;4.88;;;2.90;;
23496;SDS011;11925;48.122;11.560;2022-08-19T14:50:44;3.72;;;3.08;;
23496;SDS011;11925;48.122;11.560;2022-08-19T14:53:12;4.03;;;3.00;;
23496;SDS011;11925;48.122;11.560;2022-08-19T14:55:43;3.25;;;2.63;;
23496;SDS011;11925;48.122;11.560;2022-08-19T14:58:13;4.00;;;3.08;;
23496;SDS011;11925;48.122;11.560;2022-08-19T15:00:56;3.60;;;2.80;;
23496;SDS011;11925;48.122;11.560;2022-08-19T15:03:27;4.18;;;2.80;;
23496;SDS011;11925;48.122;11.560;2022-08-19T15:05:56;3.30;;;2.45;;